Time;durP1;ratioP1;P1;durP2;ratioP2;P2;SDS_P1;SDS_P2;PMS_P1;PMS_P2;Temp;Humidity;BMP_temperature;BMP_pressure;BME280_temperature;BME280_humidity;BME280_pressure;Samples;Min_cycle;Max_cycle;Signal;HPM_P1;HPM_P2
2021/01/16 00:02:11;;;;;;;18.50;16.70;;;2.10;99.90;;;;;;4914943;29;20978;-74
2021/01/16 00:04:37;;;;;;;19.17;17.27;;;2.10;99.90;;;;;;4914967;29;20877;-74
2021/01/16 00:07:04;;;;;;;21.27;19.33;;;2.20;99.90;;;;;;4914775;29;20456;-74
2021/01/16 00:09:31;;;;;;;20.10;18.17;;;2.10;99.90;;;;;;4914531;29;20486;-74
2021/01/16 00:11:57;;;;;;;21.00;18.87;;;2.10;99.90;;;;;;4914982;29;20505;-75
2021/01/16 00:14:23;;;;;;;19.20;17.50;;;2.10;99.90;;;;;;4914947;29;20535;-73
2021/01/16 00:16:49;;;;;;;20.97;18.30;;;2.10;99.90;;;;;;4914623;29;20450;-72
2021/01/16 00:19:15;;;;;;;19.27;17.63;;;2.00;99.90;;;;;;4914547;29;20458;-73
2021/01/16 00:21:43;;;;;;;21.10;18.47;;;2.10;99.90;;;;;;4914651;29;20802;-74
2021/01/16 00:24:09;;;;;;;21.50;18.43;;;2.00;99.90;;;;;;4914641;29;20552;-73
2021/01/16 00:26:36;;;;;;;18.63;16.73;;;2.10;99.90;;;;;;4914410;29;20454;-73
2021/01/16 00:29:03;;;;;;;19.43;17.43;;;2.10;99.90;;;;;;4914301;29;20869;-74
2021/01/16 00:31:29;;;;;;;20.33;18.37;;;2.00;99.90;;;;;;4914293;29;20484;-74
2021/01/16 00:33:55;;;;;;;20.63;18.67;;;2.00;99.90;;;;;;4914399;29;20512;-74
2021/01/16 00:36:21;;;;;;;25.07;19.50;;;2.00;99.90;;;;;;4914400;29;20458;-73
2021/01/16 00:38:47;;;;;;;19.33;17.30;;;2.00;99.90;;;;;;4914288;29;20462;-73
2021/01/16 00:41:14;;;;;;;24.63;18.70;;;2.10;99.90;;;;;;4914377;29;20456;-73
2021/01/16 00:43:41;;;;;;;19.43;17.30;;;2.10;99.90;;;;;;4914223;29;20498;-73
2021/01/16 00:46:07;;;;;;;20.37;18.27;;;2.00;99.90;;;;;;4914328;29;20462;-73
2021/01/16 00:48:34;;;;;;;21.30;19.07;;;2.00;99.90;;;;;;4914039;29;20462;-74
2021/01/16 00:51:00;;;;;;;21.90;19.60;;;2.00;99.90;;;;;;4913995;29;21012;-75
2021/01/16 00:53:26;;;;;;;21.53;19.40;;;2.00;99.90;;;;;;4914368;29;20513;-75
2021/01/16 00:55:52;;;;;;;22.37;19.50;;;2.00;99.90;;;;;;4914001;29;20473;-74
2021/01/16 00:58:20;;;;;;;22.10;18.90;;;2.00;99.90;;;;;;4914006;29;20467;-73
2021/01/16 01:00:49;;;;;;;21.40;19.17;;;1.90;99.90;;;;;;4914072;29;20448;-73
2021/01/16 01:03:16;;;;;;;20.37;18.40;;;2.00;99.90;;;;;;4913972;29;20460;-74
2021/01/16 01:05:42;;;;;;;22.47;20.17;;;2.00;99.90;;;;;;4916762;29;20938;-74
2021/01/16 01:08:09;;;;;;;20.07;17.97;;;2.00;99.90;;;;;;4918225;29;20468;-74
2021/01/16 01:10:38;;;;;;;20.40;18.27;;;2.00;99.90;;;;;;4917549;29;21376;-73
2021/01/16 01:13:04;;;;;;;20.13;18.33;;;2.10;99.90;;;;;;4917933;29;20841;-73
2021/01/16 01:15:30;;;;;;;19.80;17.83;;;2.00;99.90;;;;;;4917972;29;20500;-73
2021/01/16 01:17:59;;;;;;;19.97;18.00;;;2.00;99.90;;;;;;4917842;29;20530;-75
2021/01/16 01:20:25;;;;;;;21.77;19.47;;;2.10;99.90;;;;;;4917763;29;20467;-75
2021/01/16 01:22:52;;;;;;;20.40;18.60;;;2.00;99.90;;;;;;4917678;29;20462;-73
2021/01/16 01:25:21;;;;;;;21.93;19.93;;;2.00;99.90;;;;;;4917554;29;20461;-74
2021/01/16 01:27:49;;;;;;;23.40;21.00;;;2.00;99.90;;;;;;4917548;29;20511;-75
2021/01/16 01:30:16;;;;;;;21.93;19.10;;;2.00;99.90;;;;;;4917418;29;20494;-74
2021/01/16 01:32:43;;;;;;;21.93;19.57;;;2.00;99.90;;;;;;4917524;29;20460;-75
2021/01/16 01:35:10;;;;;;;20.47;18.47;;;2.00;99.90;;;;;;4917691;29;20453;-75
2021/01/16 01:37:40;;;;;;;20.93;18.90;;;2.10;99.90;;;;;;4917490;29;20799;-75
2021/01/16 01:40:08;;;;;;;21.57;19.37;;;2.10;99.90;;;;;;4917116;29;20446;-74
2021/01/16 01:42:34;;;;;;;23.77;19.50;;;2.10;99.90;;;;;;4917332;29;20467;-74
2021/01/16 01:45:00;;;;;;;20.23;18.13;;;2.10;99.90;;;;;;4917459;29;20457;-75
2021/01/16 01:47:26;;;;;;;24.00;20.63;;;2.10;99.90;;;;;;4917369;29;20464;-75
2021/01/16 01:49:54;;;;;;;20.03;18.13;;;2.10;99.90;;;;;;4917144;29;20531;-75
2021/01/16 01:52:21;;;;;;;24.43;18.97;;;2.10;99.90;;;;;;4917089;29;20454;-75
2021/01/16 01:54:52;;;;;;;22.17;19.80;;;2.10;99.90;;;;;;4916806;29;20458;-75
2021/01/16 01:57:20;;;;;;;24.83;20.40;;;2.10;99.90;;;;;;4916984;29;20466;-75
2021/01/16 01:59:46;;;;;;;21.50;19.37;;;2.00;99.90;;;;;;4917055;29;21025;-75
2021/01/16 02:02:15;;;;;;;21.97;19.70;;;2.00;99.90;;;;;;4917373;29;20461;-75
2021/01/16 02:04:44;;;;;;;21.60;19.47;;;2.10;99.90;;;;;;4917107;29;20461;-75
2021/01/16 02:07:26;;;;;;;22.37;20.03;;;2.10;99.90;;;;;;4917101;29;20465;-76
2021/01/16 02:09:53;;;;;;;25.40;21.07;;;2.20;99.90;;;;;;4916807;29;20481;-76
2021/01/16 02:12:20;;;;;;;22.50;19.27;;;2.20;99.90;;;;;;4916845;29;20775;-76
2021/01/16 02:14:53;;;;;;;21.43;19.30;;;2.20;99.90;;;;;;4916541;29;20462;-76
2021/01/16 02:17:23;;;;;;;20.80;18.63;;;2.20;99.90;;;;;;4916749;29;20460;-76
2021/01/16 02:20:05;;;;;;;22.47;19.97;;;2.20;99.90;;;;;;4916712;29;20484;-75
2021/01/16 02:22:42;;;;;;;20.90;18.70;;;2.20;99.90;;;;;;4916549;29;20454;-75
2021/01/16 02:25:12;;;;;;;26.43;19.57;;;2.10;99.90;;;;;;4916595;29;20464;-75
2021/01/16 02:27:51;;;;;;;23.20;19.63;;;2.10;99.90;;;;;;4916348;29;20964;-75
2021/01/16 02:30:19;;;;;;;21.57;19.37;;;2.20;99.90;;;;;;4916397;29;20486;-75
2021/01/16 02:32:47;;;;;;;22.37;19.03;;;2.20;99.90;;;;;;4916411;29;20523;-75
2021/01/16 02:35:16;;;;;;;20.80;18.90;;;2.20;99.90;;;;;;4916881;29;20823;-76
2021/01/16 02:38:02;;;;;;;25.50;20.93;;;2.20;99.90;;;;;;4916473;29;20965;-76
2021/01/16 02:40:35;;;;;;;22.27;20.00;;;2.20;99.90;;;;;;4916415;29;20450;-76
2021/01/16 02:43:14;;;;;;;22.87;20.40;;;2.10;99.90;;;;;;4916306;29;20505;-76
2021/01/16 02:45:45;;;;;;;25.70;20.03;;;2.10;99.90;;;;;;4916491;29;20472;-75
2021/01/16 02:48:19;;;;;;;22.43;20.00;;;2.10;99.90;;;;;;4916406;29;20456;-76
2021/01/16 02:50:49;;;;;;;21.70;19.27;;;2.00;99.90;;;;;;4915977;29;21031;-75
2021/01/16 02:53:18;;;;;;;24.93;21.23;;;2.20;99.90;;;;;;4916353;29;20461;-76
2021/01/16 02:55:44;;;;;;;22.67;20.20;;;2.10;99.90;;;;;;4916019;29;20936;-75
2021/01/16 02:58:11;;;;;;;21.97;19.80;;;2.20;99.90;;;;;;4916188;29;20453;-76
2021/01/16 03:00:38;;;;;;;21.20;19.10;;;2.30;99.90;;;;;;4916162;29;20452;-75
2021/01/16 03:03:04;;;;;;;21.67;19.47;;;2.30;99.90;;;;;;4915737;29;20452;-76
2021/01/16 03:05:30;;;;;;;23.27;20.87;;;2.30;99.90;;;;;;4915959;29;20774;-75
2021/01/16 03:07:59;;;;;;;22.53;20.13;;;2.30;99.90;;;;;;4916143;29;20956;-76
2021/01/16 03:10:26;;;;;;;22.63;20.10;;;2.30;99.90;;;;;;4915623;29;20498;-76
2021/01/16 03:12:53;;;;;;;24.63;21.80;;;2.30;99.90;;;;;;4915748;29;20454;-75
2021/01/16 03:15:21;;;;;;;22.60;20.20;;;2.30;99.90;;;;;;4915619;29;20468;-76
2021/01/16 03:17:49;;;;;;;23.90;20.43;;;2.40;99.90;;;;;;4915899;29;20461;-75
2021/01/16 03:20:19;;;;;;;24.77;22.00;;;2.30;99.90;;;;;;4915926;29;20454;-76
2021/01/16 03:22:45;;;;;;;21.43;19.27;;;2.30;99.90;;;;;;4915527;29;20462;-75
2021/01/16 03:25:12;;;;;;;23.70;21.27;;;2.30;99.90;;;;;;4915792;29;20461;-75
2021/01/16 03:27:39;;;;;;;26.07;21.27;;;2.20;99.90;;;;;;4915220;29;20458;-75
2021/01/16 03:30:06;;;;;;;23.57;20.40;;;2.30;99.90;;;;;;4915412;29;20494;-75
2021/01/16 03:32:33;;;;;;;22.13;19.63;;;2.30;99.90;;;;;;4914820;29;20474;-75
2021/01/16 03:34:59;;;;;;;22.73;20.40;;;2.20;99.90;;;;;;4915454;29;20470;-75
2021/01/16 03:37:25;;;;;;;23.77;21.43;;;2.20;99.90;;;;;;4915848;29;20474;-75
2021/01/16 03:39:51;;;;;;;22.30;19.90;;;2.30;99.90;;;;;;4915307;29;20454;-75
2021/01/16 03:42:17;;;;;;;22.60;20.20;;;2.30;99.90;;;;;;4915138;29;20466;-75
2021/01/16 03:44:44;;;;;;;22.33;20.00;;;2.30;99.90;;;;;;4915379;29;20473;-75
2021/01/16 03:47:10;;;;;;;24.37;20.57;;;2.20;99.90;;;;;;4915224;29;20457;-75
2021/01/16 03:49:37;;;;;;;21.07;18.80;;;2.30;99.90;;;;;;4915047;29;21034;-75
2021/01/16 03:52:04;;;;;;;23.00;20.20;;;2.30;99.90;;;;;;4915076;29;20457;-75
2021/01/16 03:54:30;;;;;;;24.00;21.27;;;2.40;99.90;;;;;;4914946;29;20462;-75
2021/01/16 03:56:57;;;;;;;23.90;20.67;;;2.40;99.90;;;;;;4915016;29;20462;-74
2021/01/16 03:59:24;;;;;;;24.90;22.27;;;2.30;99.90;;;;;;4915033;29;20450;-74
2021/01/16 04:01:50;;;;;;;23.47;21.17;;;2.40;99.90;;;;;;4915053;29;20455;-75
2021/01/16 04:04:16;;;;;;;20.60;18.60;;;2.40;99.90;;;;;;4914998;29;20462;-76
2021/01/16 04:06:43;;;;;;;24.40;20.30;;;2.30;99.90;;;;;;4915278;29;20468;-76
2021/01/16 04:09:10;;;;;;;23.43;20.00;;;2.30;99.90;;;;;;4914756;29;21089;-75
2021/01/16 04:11:36;;;;;;;24.20;21.80;;;2.30;99.90;;;;;;4914628;29;20867;-76
2021/01/16 04:14:04;;;;;;;23.33;21.10;;;2.30;99.90;;;;;;4914829;29;20465;-75
2021/01/16 04:16:30;;;;;;;25.03;22.37;;;2.30;99.90;;;;;;4914619;29;20456;-73
2021/01/16 04:18:56;;;;;;;23.57;21.17;;;2.20;99.90;;;;;;4914789;29;20467;-75
2021/01/16 04:21:23;;;;;;;22.00;19.70;;;2.30;99.90;;;;;;4914846;29;20452;-75
2021/01/16 04:23:50;;;;;;;23.93;21.43;;;2.30;99.90;;;;;;4914635;29;20509;-73
2021/01/16 04:26:16;;;;;;;24.73;20.17;;;2.40;99.90;;;;;;4914521;29;20461;-76
2021/01/16 04:28:43;;;;;;;23.70;21.20;;;2.30;99.90;;;;;;4914645;29;20859;-76
2021/01/16 04:31:09;;;;;;;24.17;21.67;;;2.20;99.90;;;;;;4914375;29;20505;-76
2021/01/16 04:33:35;;;;;;;22.67;20.33;;;2.20;99.90;;;;;;4913881;29;21044;-77
2021/01/16 04:36:01;;;;;;;23.60;19.77;;;2.20;99.90;;;;;;4914472;29;20463;-76
2021/01/16 04:38:27;;;;;;;24.63;22.23;;;2.30;99.90;;;;;;4914290;29;20459;-76
2021/01/16 04:40:55;;;;;;;24.83;21.83;;;2.20;99.90;;;;;;4913591;29;20462;-76
2021/01/16 04:43:21;;;;;;;24.50;22.00;;;2.30;99.90;;;;;;4914179;29;20465;-76
2021/01/16 04:45:51;;;;;;;25.50;22.87;;;2.30;99.90;;;;;;4913961;29;21002;-75
2021/01/16 04:48:19;;;;;;;24.70;22.20;;;2.20;99.90;;;;;;4914151;29;20819;-76
2021/01/16 04:50:49;;;;;;;20.67;18.60;;;2.20;99.90;;;;;;4914093;29;20581;-75
2021/01/16 04:53:17;;;;;;;25.57;22.13;;;2.20;99.90;;;;;;4914421;29;20479;-76
2021/01/16 04:55:45;;;;;;;23.67;21.20;;;2.20;99.90;;;;;;4914309;29;20451;-76
2021/01/16 04:58:12;;;;;;;23.73;21.37;;;2.20;99.90;;;;;;4913982;29;20471;-77
2021/01/16 05:00:40;;;;;;;21.93;19.53;;;2.20;99.90;;;;;;4914067;29;20970;-76
2021/01/16 05:03:08;;;;;;;22.13;19.60;;;2.10;99.90;;;;;;4913945;29;20941;-76
2021/01/16 05:05:38;;;;;;;25.40;21.37;;;2.10;99.90;;;;;;4914061;29;20457;-75
2021/01/16 05:08:06;;;;;;;24.50;20.20;;;2.20;99.90;;;;;;4913964;29;20472;-76
2021/01/16 05:10:37;;;;;;;26.67;22.80;;;2.10;99.90;;;;;;4913973;29;20540;-75
2021/01/16 05:13:12;;;;;;;24.93;21.17;;;2.20;99.90;;;;;;4913716;29;20853;-75
2021/01/16 05:15:41;;;;;;;24.33;21.70;;;2.20;99.90;;;;;;4914165;29;20464;-76
2021/01/16 05:18:09;;;;;;;22.07;19.77;;;2.30;99.90;;;;;;4914067;29;20456;-75
2021/01/16 05:20:38;;;;;;;27.40;22.00;;;2.30;99.90;;;;;;4913708;29;20453;-75
2021/01/16 05:23:15;;;;;;;22.50;20.27;;;2.10;99.90;;;;;;4913862;29;20787;-75
2021/01/16 05:25:52;;;;;;;25.33;21.80;;;2.20;99.90;;;;;;4914143;29;20945;-75
2021/01/16 05:28:20;;;;;;;24.20;21.10;;;2.30;99.90;;;;;;4913766;29;21042;-75
2021/01/16 05:30:52;;;;;;;27.23;21.80;;;2.10;99.90;;;;;;4913739;29;20855;-74
2021/01/16 05:33:19;;;;;;;23.47;21.00;;;2.20;99.90;;;;;;4913501;29;20486;-75
2021/01/16 05:35:46;;;;;;;31.10;23.50;;;2.20;99.90;;;;;;4913735;29;20466;-75
2021/01/16 05:38:14;;;;;;;24.47;21.93;;;2.10;99.90;;;;;;4914081;29;20516;-75
2021/01/16 05:40:41;;;;;;;24.63;21.00;;;2.10;99.90;;;;;;4914051;29;20512;-74
2021/01/16 05:43:07;;;;;;;25.53;20.20;;;2.10;99.90;;;;;;4913695;29;20454;-75
2021/01/16 05:45:36;;;;;;;24.87;20.10;;;2.10;99.90;;;;;;4913541;29;20465;-74
2021/01/16 05:48:03;;;;;;;24.03;21.23;;;2.10;99.90;;;;;;4913519;29;20454;-74
2021/01/16 05:50:30;;;;;;;21.90;19.37;;;2.10;99.90;;;;;;4914345;29;20547;-74
2021/01/16 05:52:57;;;;;;;28.07;23.43;;;2.00;99.90;;;;;;4917639;29;20460;-74
2021/01/16 05:55:24;;;;;;;26.13;20.63;;;2.10;99.90;;;;;;4917228;29;20457;-75
2021/01/16 05:58:03;;;;;;;23.00;20.77;;;2.10;99.90;;;;;;4917047;29;20476;-74
2021/01/16 06:00:35;;;;;;;22.30;19.57;;;2.00;99.90;;;;;;4917033;29;20462;-74
2021/01/16 06:03:02;;;;;;;23.33;20.97;;;2.00;99.90;;;;;;4916990;29;20446;-75
2021/01/16 06:05:29;;;;;;;22.83;20.67;;;2.00;99.90;;;;;;4917320;29;20461;-75
2021/01/16 06:07:56;;;;;;;24.57;21.87;;;2.00;99.90;;;;;;4916855;29;20457;-75
2021/01/16 06:10:23;;;;;;;22.77;20.10;;;2.10;99.90;;;;;;4917051;29;20555;-75
2021/01/16 06:12:50;;;;;;;25.60;21.53;;;2.10;99.90;;;;;;4916795;29;20461;-74
2021/01/16 06:15:17;;;;;;;25.60;20.80;;;2.10;99.90;;;;;;4916821;29;20871;-74
2021/01/16 06:17:46;;;;;;;25.70;21.67;;;2.00;99.90;;;;;;4916851;29;20597;-73
2021/01/16 06:20:16;;;;;;;27.30;20.40;;;2.10;99.90;;;;;;4916946;29;20453;-74
2021/01/16 06:22:42;;;;;;;27.40;22.80;;;2.10;99.90;;;;;;4917024;29;20465;-73
2021/01/16 06:25:20;;;;;;;23.50;20.87;;;2.10;99.90;;;;;;4916707;29;21024;-73
2021/01/16 06:27:48;;;;;;;23.17;20.83;;;2.20;99.90;;;;;;4916569;29;20509;-73
2021/01/16 06:30:17;;;;;;;27.60;22.00;;;2.20;99.90;;;;;;4916313;29;20490;-73
2021/01/16 06:32:49;;;;;;;24.03;20.00;;;2.10;99.90;;;;;;4916486;29;20462;-73
2021/01/16 06:35:17;;;;;;;26.60;22.17;;;2.10;99.90;;;;;;4916637;29;20879;-73
2021/01/16 06:37:44;;;;;;;25.37;21.63;;;2.00;99.90;;;;;;4916814;29;20456;-74
2021/01/16 06:40:12;;;;;;;26.67;22.50;;;1.90;99.90;;;;;;4916740;29;20520;-73
2021/01/16 06:42:39;;;;;;;28.80;20.87;;;1.90;99.90;;;;;;4916156;29;20527;-73
2021/01/16 06:45:07;;;;;;;25.90;21.60;;;1.90;99.90;;;;;;4916230;29;20454;-73
2021/01/16 06:47:34;;;;;;;24.17;20.97;;;1.90;99.90;;;;;;4916164;29;20808;-73
2021/01/16 06:50:03;;;;;;;26.30;21.87;;;1.90;99.90;;;;;;4916261;29;20855;-72
2021/01/16 06:52:34;;;;;;;27.87;21.70;;;2.00;99.90;;;;;;4916243;29;20487;-72
2021/01/16 06:55:03;;;;;;;33.10;23.70;;;2.00;99.90;;;;;;4916162;29;20458;-73
2021/01/16 06:57:30;;;;;;;23.80;21.40;;;1.90;99.90;;;;;;4916196;29;20959;-73
2021/01/16 07:00:04;;;;;;;26.33;23.17;;;1.90;99.90;;;;;;4916214;29;20590;-74
2021/01/16 07:02:32;;;;;;;28.27;22.57;;;1.90;99.90;;;;;;4915145;29;20486;-74
2021/01/16 07:05:01;;;;;;;25.97;23.00;;;2.00;99.90;;;;;;4916204;29;20460;-74
2021/01/16 07:07:31;;;;;;;27.13;21.77;;;2.10;99.90;;;;;;4916046;29;20850;-74
2021/01/16 07:10:01;;;;;;;27.13;20.80;;;2.00;99.90;;;;;;4915848;29;20852;-74
2021/01/16 07:12:27;;;;;;;25.57;22.33;;;2.00;99.90;;;;;;4915884;29;20460;-75
2021/01/16 07:14:53;;;;;;;25.43;20.13;;;2.00;99.90;;;;;;4915674;29;20517;-74
2021/01/16 07:17:22;;;;;;;25.13;21.40;;;2.00;99.90;;;;;;4915616;29;20472;-74
2021/01/16 07:19:48;;;;;;;26.83;22.47;;;2.10;99.90;;;;;;4915349;29;20591;-74
2021/01/16 07:22:14;;;;;;;24.77;22.13;;;2.10;99.90;;;;;;4915238;29;20460;-74
2021/01/16 07:24:44;;;;;;;27.23;21.50;;;2.10;99.90;;;;;;4915543;29;20454;-74
2021/01/16 07:27:12;;;;;;;25.00;22.37;;;2.10;99.90;;;;;;4915261;29;20454;-74
2021/01/16 07:29:39;;;;;;;31.40;24.03;;;2.10;99.90;;;;;;4915744;29;20455;-74
2021/01/16 07:32:14;;;;;;;25.70;22.10;;;2.10;99.90;;;;;;4915196;29;20488;-74
2021/01/16 07:34:43;;;;;;;28.73;23.17;;;2.20;99.90;;;;;;4915496;29;20491;-74
2021/01/16 07:37:10;;;;;;;23.07;19.83;;;2.20;99.90;;;;;;4915756;29;20814;-74
2021/01/16 07:39:39;;;;;;;30.63;24.27;;;2.30;99.90;;;;;;4915196;29;20575;-75
2021/01/16 07:42:12;;;;;;;28.43;23.50;;;2.30;99.90;;;;;;4915005;29;20453;-75
2021/01/16 07:44:45;;;;;;;25.47;21.63;;;2.20;99.90;;;;;;4915268;29;20471;-75
2021/01/16 07:47:18;;;;;;;25.13;21.73;;;2.20;99.90;;;;;;4915496;29;20454;-75
2021/01/16 07:49:53;;;;;;;23.57;21.20;;;2.20;99.90;;;;;;4915054;29;20460;-72
2021/01/16 07:52:23;;;;;;;25.57;22.93;;;2.10;99.90;;;;;;4915210;29;20807;-75
2021/01/16 07:55:04;;;;;;;24.83;22.13;;;2.20;99.90;;;;;;4914852;29;20558;-75
2021/01/16 07:57:33;;;;;;;27.30;23.57;;;2.30;99.90;;;;;;4917888;29;20472;-72
2021/01/16 08:00:06;;;;;;;25.07;22.30;;;2.40;99.90;;;;;;4925763;29;20544;-73
2021/01/16 08:02:38;;;;;;;24.33;21.90;;;2.40;99.90;;;;;;4921615;29;20879;-75
2021/01/16 08:05:15;;;;;;;26.00;20.57;;;2.50;99.90;;;;;;4914783;29;20570;-74
2021/01/16 08:08:14;;;;;;;23.33;21.03;;;2.50;99.90;;;;;;4914887;29;20541;-75
2021/01/16 08:10:43;;;;;;;24.23;21.57;;;2.40;99.90;;;;;;4915008;29;20501;-75
2021/01/16 08:13:11;;;;;;;25.90;21.40;;;2.40;99.90;;;;;;4914541;29;20458;-75
2021/01/16 08:15:42;;;;;;;23.67;21.27;;;2.40;99.90;;;;;;4929177;29;20453;-75
2021/01/16 08:18:12;;;;;;;26.20;22.50;;;2.40;99.90;;;;;;4933645;29;20461;-75
2021/01/16 08:20:42;;;;;;;24.27;21.43;;;2.40;99.90;;;;;;4933053;29;20513;-75
2021/01/16 08:23:11;;;;;;;21.77;19.67;;;2.40;99.90;;;;;;4933021;29;20466;-75
2021/01/16 08:25:38;;;;;;;23.03;20.77;;;2.40;99.90;;;;;;4932789;29;20471;-76
2021/01/16 08:28:05;;;;;;;32.67;23.67;;;2.40;99.90;;;;;;4932605;29;21296;-74
2021/01/16 08:30:33;;;;;;;31.37;24.17;;;2.40;99.90;;;;;;4932593;29;20538;-74
2021/01/16 08:33:03;;;;;;;24.93;21.90;;;2.50;99.90;;;;;;4915746;29;20477;-74
2021/01/16 08:35:31;;;;;;;24.87;21.10;;;2.60;99.90;;;;;;4913828;29;20459;-76
2021/01/16 08:38:22;;;;;;;23.90;20.60;;;2.50;99.90;;;;;;4913883;29;20459;-76
2021/01/16 08:40:54;;;;;;;24.97;22.60;;;2.70;99.90;;;;;;4913683;29;20465;-76
2021/01/16 08:43:29;;;;;;;26.50;23.00;;;2.70;99.90;;;;;;4913598;29;20457;-76
2021/01/16 08:46:10;;;;;;;23.27;20.57;;;2.70;99.90;;;;;;4913882;29;20557;-76
2021/01/16 08:48:38;;;;;;;23.10;20.77;;;2.80;99.90;;;;;;4913572;29;20521;-76
2021/01/16 08:51:28;;;;;;;23.73;20.17;;;2.70;99.90;;;;;;4913547;29;21059;-76
2021/01/16 08:54:12;;;;;;;29.30;21.70;;;2.80;99.90;;;;;;4913794;29;20451;-75
2021/01/16 08:56:39;;;;;;;22.37;20.00;;;2.70;99.90;;;;;;4913576;29;20454;-76
2021/01/16 08:59:18;;;;;;;23.20;20.80;;;2.80;99.90;;;;;;4913407;29;21185;-76
2021/01/16 09:01:46;;;;;;;26.20;21.90;;;2.80;99.90;;;;;;4913443;29;20457;-76
2021/01/16 09:04:20;;;;;;;26.03;21.77;;;2.80;99.90;;;;;;4913827;29;20458;-76
2021/01/16 09:06:48;;;;;;;23.97;21.47;;;2.80;99.90;;;;;;4927430;29;20455;-76
2021/01/16 09:09:23;;;;;;;26.47;23.43;;;2.70;99.90;;;;;;4932576;29;20460;-76
2021/01/16 09:12:03;;;;;;;26.77;23.83;;;2.60;99.90;;;;;;4932296;29;20489;-75
2021/01/16 09:14:29;;;;;;;29.23;24.27;;;2.60;99.90;;;;;;4932598;29;20454;-75
2021/01/16 09:16:56;;;;;;;25.50;22.30;;;2.60;99.90;;;;;;4932452;29;20821;-75
2021/01/16 09:19:28;;;;;;;26.57;23.17;;;2.60;99.90;;;;;;4932301;29;20823;-74
2021/01/16 09:22:17;;;;;;;24.17;21.77;;;2.40;99.90;;;;;;4932380;29;20545;-74
2021/01/16 09:24:43;;;;;;;24.03;21.63;;;2.40;99.90;;;;;;4932663;29;20500;-74
2021/01/16 09:27:24;;;;;;;24.20;21.60;;;2.50;99.90;;;;;;4935750;29;20879;-75
2021/01/16 09:29:50;;;;;;;27.17;20.80;;;2.60;99.90;;;;;;4936200;29;20498;-75
2021/01/16 09:32:32;;;;;;;22.90;20.50;;;2.50;99.90;;;;;;4936050;29;20477;-75
2021/01/16 09:34:59;;;;;;;21.80;19.80;;;2.40;99.90;;;;;;4936224;29;20460;-76
2021/01/16 09:37:26;;;;;;;24.77;22.17;;;2.50;99.90;;;;;;4936312;29;20468;-76
2021/01/16 09:40:05;;;;;;;23.97;21.20;;;2.40;99.90;;;;;;4936032;29;21014;-76
2021/01/16 09:42:43;;;;;;;27.87;22.97;;;2.50;99.90;;;;;;4935706;29;20815;-76
2021/01/16 09:45:10;;;;;;;25.43;22.53;;;2.50;99.90;;;;;;4935990;29;21022;-76
2021/01/16 09:47:52;;;;;;;25.77;23.07;;;2.60;99.90;;;;;;4935925;29;20453;-76
2021/01/16 09:50:21;;;;;;;25.73;22.50;;;2.70;99.90;;;;;;4935855;29;20492;-76
2021/01/16 09:52:49;;;;;;;30.13;22.83;;;2.70;99.90;;;;;;4935884;29;20465;-76
2021/01/16 09:55:21;;;;;;;27.07;24.27;;;2.70;99.90;;;;;;4935822;29;20826;-77
2021/01/16 09:57:48;;;;;;;29.57;25.17;;;2.80;99.90;;;;;;4935587;29;20457;-76
2021/01/16 10:00:16;;;;;;;29.80;24.10;;;2.80;99.90;;;;;;4935797;29;20974;-76
2021/01/16 10:02:44;;;;;;;28.17;24.40;;;2.90;99.90;;;;;;4935830;29;20445;-76
2021/01/16 10:05:14;;;;;;;28.17;23.70;;;3.00;99.90;;;;;;4934170;29;20469;-76
2021/01/16 10:07:42;;;;;;;26.50;23.50;;;3.00;99.90;;;;;;4916850;29;20841;-76
2021/01/16 10:10:14;;;;;;;29.23;24.43;;;3.00;99.90;;;;;;4916443;29;20460;-77
2021/01/16 10:12:42;;;;;;;27.80;24.40;;;3.20;99.90;;;;;;4916380;29;20450;-77
2021/01/16 10:15:11;;;;;;;24.90;22.30;;;3.30;99.90;;;;;;4916465;29;20450;-77
2021/01/16 10:17:44;;;;;;;23.93;21.33;;;3.30;99.90;;;;;;4916410;29;20872;-76
2021/01/16 10:20:13;;;;;;;23.33;20.93;;;3.40;99.90;;;;;;4916586;29;20961;-77
2021/01/16 10:22:43;;;;;;;25.07;22.57;;;3.40;99.90;;;;;;4916457;29;20541;-77
2021/01/16 10:25:10;;;;;;;24.47;22.10;;;3.30;99.90;;;;;;4916570;29;20466;-76
2021/01/16 10:27:46;;;;;;;24.33;19.73;;;3.50;99.90;;;;;;4916151;29;20458;-76
2021/01/16 10:30:19;;;;;;;23.57;21.17;;;3.40;99.90;;;;;;4916019;29;20458;-76
2021/01/16 10:32:47;;;;;;;22.60;20.20;;;3.60;99.90;;;;;;4915801;29;20505;-76
2021/01/16 10:35:21;;;;;;;27.60;24.37;;;3.80;99.90;;;;;;4916477;29;20514;-76
2021/01/16 10:37:48;;;;;;;24.50;21.10;;;4.00;99.90;;;;;;4914905;29;20460;-77
2021/01/16 10:40:15;;;;;;;27.90;23.43;;;4.00;99.90;;;;;;4916011;29;20950;-78
2021/01/16 10:42:47;;;;;;;29.67;24.73;;;4.00;99.90;;;;;;4915980;29;20978;-76
2021/01/16 10:45:15;;;;;;;26.13;23.37;;;4.00;99.90;;;;;;4916285;29;20456;-77
2021/01/16 10:47:43;;;;;;;25.27;22.53;;;3.80;99.90;;;;;;4916185;29;20455;-77
2021/01/16 10:50:13;;;;;;;26.13;23.20;;;3.70;99.90;;;;;;4916019;29;20461;-77
2021/01/16 10:52:40;;;;;;;23.30;20.87;;;3.70;99.90;;;;;;4915776;29;20512;-78
2021/01/16 10:55:09;;;;;;;23.83;21.53;;;3.60;99.90;;;;;;4915856;29;20450;-78
2021/01/16 10:57:41;;;;;;;27.30;22.87;;;3.30;99.90;;;;;;4915776;29;20457;-77
2021/01/16 11:00:11;;;;;;;25.93;22.30;;;3.40;99.90;;;;;;4915688;29;20460;-78
2021/01/16 11:02:40;;;;;;;27.90;24.90;;;3.30;99.90;;;;;;4915706;29;20813;-79
2021/01/16 11:05:27;;;;;;;25.43;21.60;;;3.20;99.90;;;;;;4916516;29;20555;-78
2021/01/16 11:07:56;;;;;;;24.30;21.83;;;3.20;99.90;;;;;;4934658;29;20829;-79
2021/01/16 11:10:33;;;;;;;28.60;22.27;;;3.20;99.90;;;;;;4934719;29;20486;-78
2021/01/16 11:13:22;;;;;;;24.93;22.20;;;3.10;99.90;;;;;;4934499;29;20553;-79
2021/01/16 11:15:53;;;;;;;23.80;21.40;;;3.10;99.90;;;;;;4934342;29;20461;-79
2021/01/16 11:18:34;;;;;;;32.63;24.17;;;3.30;99.90;;;;;;4934164;29;20453;-79
2021/01/16 11:21:04;;;;;;;23.20;20.90;;;3.50;99.90;;;;;;4934277;29;21584;-79
2021/01/16 11:23:58;;;;;;;24.07;21.57;;;3.30;99.90;;;;;;4934289;29;20467;-79
2021/01/16 11:26:26;;;;;;;23.97;20.80;;;3.40;99.90;;;;;;4934555;29;20446;-78
2021/01/16 11:28:53;;;;;;;24.20;21.70;;;3.30;99.90;;;;;;4934431;29;21007;-80
2021/01/16 11:31:28;;;;;;;25.27;22.67;;;3.30;99.90;;;;;;4933277;29;20497;-79
2021/01/16 11:34:21;;;;;;;21.13;18.83;;;3.30;99.90;;;;;;4934124;29;20999;-79
2021/01/16 11:37:00;;;;;;;25.93;23.10;;;3.30;99.90;;;;;;4934160;29;21072;-79
2021/01/16 11:39:49;;;;;;;23.23;20.87;;;3.50;99.90;;;;;;4934323;29;20823;-79
2021/01/16 11:42:16;;;;;;;24.27;21.77;;;3.60;99.90;;;;;;4933972;29;20457;-79
2021/01/16 11:44:50;;;;;;;24.17;21.90;;;3.80;99.90;;;;;;4934211;29;20554;-79
2021/01/16 11:47:16;;;;;;;24.77;22.03;;;4.00;99.90;;;;;;4933852;29;20512;-80
2021/01/16 11:49:44;;;;;;;23.37;21.07;;;4.10;99.90;;;;;;4933710;29;20825;-79
2021/01/16 11:52:11;;;;;;;24.70;22.13;;;4.20;99.90;;;;;;4934163;29;20497;-80
2021/01/16 11:54:37;;;;;;;24.63;22.23;;;4.10;99.90;;;;;;4934083;29;20863;-78
2021/01/16 11:57:07;;;;;;;26.87;24.10;;;4.30;99.90;;;;;;4933687;29;20457;-79
2021/01/16 11:59:33;;;;;;;24.70;22.10;;;4.00;99.90;;;;;;4933712;29;20822;-78
2021/01/16 12:02:01;;;;;;;23.10;20.50;;;3.80;99.90;;;;;;4933514;29;20949;-79
2021/01/16 12:04:27;;;;;;;22.07;19.93;;;3.60;99.90;;;;;;4933776;29;20515;-78
2021/01/16 12:06:58;;;;;;;23.17;21.20;;;3.30;99.90;;;;;;4918765;29;20953;-78
2021/01/16 12:09:27;;;;;;;25.50;20.03;;;3.00;99.90;;;;;;4914736;29;20518;-79
2021/01/16 12:11:54;;;;;;;22.43;20.07;;;3.00;99.90;;;;;;4914503;29;20494;-79
2021/01/16 12:14:20;;;;;;;23.23;20.93;;;3.10;99.90;;;;;;4914404;29;20455;-79
2021/01/16 12:16:47;;;;;;;22.53;20.20;;;3.20;99.90;;;;;;4914504;29;20461;-78
2021/01/16 12:19:14;;;;;;;25.00;22.43;;;3.30;99.90;;;;;;4914674;29;20462;-79
2021/01/16 12:21:46;;;;;;;22.30;20.10;;;3.00;99.90;;;;;;4929886;29;20448;-79
2021/01/16 12:24:14;;;;;;;23.33;20.30;;;3.10;99.90;;;;;;4933455;29;20898;-79
2021/01/16 12:26:47;;;;;;;23.83;21.30;;;3.10;99.90;;;;;;4933428;29;20544;-78
2021/01/16 12:29:22;;;;;;;22.50;19.93;;;3.00;99.90;;;;;;4933237;29;20468;-78
2021/01/16 12:32:02;;;;;;;22.83;20.57;;;3.10;99.90;;;;;;4933096;29;20505;-79
2021/01/16 12:34:28;;;;;;;24.50;20.93;;;2.80;99.90;;;;;;4933277;29;20856;-79
2021/01/16 12:36:54;;;;;;;22.47;20.30;;;2.90;99.90;;;;;;4933246;29;20457;-78
2021/01/16 12:39:20;;;;;;;22.77;20.50;;;3.10;99.90;;;;;;4933067;29;20453;-79
2021/01/16 12:41:48;;;;;;;23.97;21.57;;;3.30;99.90;;;;;;4933055;29;20453;-79
2021/01/16 12:44:15;;;;;;;26.20;23.33;;;3.40;99.90;;;;;;4933270;29;20458;-78
2021/01/16 12:46:43;;;;;;;24.23;21.77;;;3.40;99.90;;;;;;4933272;29;20538;-79
2021/01/16 12:49:11;;;;;;;21.90;19.90;;;3.40;99.90;;;;;;4932940;29;20472;-78